Cecil, Georgia
Current Conditions -  °F | °C
As of 3:58 PM on Tuesday 21 Oct 2014 (Local Time) from KVAD Reporting Station
Clear Clear  
Wind Chill: 80°   Ceiling: Unl
Heat Index: 80°   Visibility: 10mi
Dew Point: 49°   Wind: 10mph
Humidity: 34%   Direction: 310°NW
Pressure: 29.93"   Gusts: NA
Location:  31.05°N, 83.39°W
Report Text: KVAD 211958Z AUTO 31009KT 10SM CLR 27/10 A2993 RMK AO2 SLP136 T02680097 $
Loading
Personal Weather Stations






























Interactive Weather Map
Tropical Storm Tracking
New forecast layout! Learn more

10-Day Weather Forecast

Advertisements
Track Severe Weather on mobile